createdAt,value
2022-11-06T00:03:13.105Z,4.05
2022-11-06T00:08:15.891Z,3.22
2022-11-06T00:13:17.752Z,4.07
2022-11-06T00:18:19.569Z,4.20
2022-11-06T00:23:21.242Z,4.65
2022-11-06T00:28:23.319Z,4.78
2022-11-06T00:33:25.003Z,4.30
2022-11-06T00:38:26.697Z,4.78
2022-11-06T00:43:28.394Z,5.10
2022-11-06T00:48:30.233Z,4.63
2022-11-06T00:53:32.054Z,4.78
2022-11-06T00:58:34.076Z,5.07
2022-11-06T01:03:36.061Z,5.05
2022-11-06T01:08:38.343Z,4.78
2022-11-06T01:13:41.103Z,4.80
2022-11-06T01:18:44.162Z,4.68
2022-11-06T01:23:46.847Z,4.70
2022-11-06T01:28:48.811Z,5.00
2022-11-06T01:33:51.129Z,5.15
2022-11-06T01:38:54.750Z,4.80
2022-11-06T01:44:00.867Z,4.65
2022-11-06T01:49:03.666Z,5.32
2022-11-06T01:54:08.430Z,5.70
2022-11-06T01:59:14.020Z,5.43
2022-11-06T02:04:23.536Z,5.15
2022-11-06T02:09:25.876Z,5.20
2022-11-06T02:14:33.270Z,4.95
2022-11-06T02:19:53.983Z,4.05
2022-11-06T02:25:09.618Z,5.13
2022-11-06T02:30:14.637Z,4.90
2022-11-06T02:35:19.585Z,4.53
2022-11-06T02:40:23.434Z,4.30
2022-11-06T02:45:27.731Z,4.25
2022-11-06T02:50:39.560Z,5.03
2022-11-06T02:55:46.236Z,4.20
2022-11-06T03:00:52.793Z,5.07
2022-11-06T03:06:10.534Z,4.75
2022-11-06T03:11:18.805Z,4.90
2022-11-06T03:16:33.490Z,4.63
2022-11-06T03:21:42.369Z,4.68
2022-11-06T03:26:48.770Z,5.75
2022-11-06T03:32:02.555Z,5.68
2022-11-06T03:37:13.094Z,4.72
2022-11-06T03:42:21.115Z,5.43
2022-11-06T03:47:26.828Z,5.75
2022-11-06T03:52:34.306Z,6.30
2022-11-06T03:57:41.516Z,6.63
2022-11-06T04:02:49.083Z,6.50
2022-11-06T04:08:14.904Z,7.18
2022-11-06T04:13:39.719Z,7.82
2022-11-06T04:18:41.379Z,7.95
2022-11-06T04:24:26.774Z,7.80
2022-11-06T04:29:35.549Z,7.78
2022-11-06T04:34:48.067Z,8.55
2022-11-06T04:40:16.607Z,8.70
2022-11-06T04:45:25.711Z,8.25
2022-11-06T04:50:30.562Z,9.23
2022-11-06T04:55:32.452Z,8.88
2022-11-06T05:00:34.345Z,9.75
2022-11-06T05:05:35.991Z,9.15
2022-11-06T05:10:37.660Z,9.25
2022-11-06T05:15:39.685Z,8.82
2022-11-06T05:20:41.269Z,7.88
2022-11-06T05:25:43.392Z,7.28
2022-11-06T05:30:45.556Z,8.10
2022-11-06T05:35:47.278Z,7.63
2022-11-06T05:40:48.903Z,7.25
2022-11-06T05:45:50.697Z,7.30
2022-11-06T05:50:52.578Z,6.07
2022-11-06T05:55:54.196Z,6.45
2022-11-06T06:00:57.893Z,5.95
2022-11-06T06:05:59.615Z,5.93
2022-11-06T06:11:05.291Z,6.07
2022-11-06T06:16:07.173Z,5.72
2022-11-06T06:21:08.997Z,4.82
2022-11-06T06:26:10.637Z,4.97
2022-11-06T06:31:12.248Z,5.40
2022-11-06T06:36:13.963Z,5.13
2022-11-06T06:41:17.324Z,5.20
2022-11-06T06:46:18.993Z,5.35
2022-11-06T06:51:23.992Z,4.78
2022-11-06T06:56:26.341Z,5.90
2022-11-06T07:01:28.106Z,5.22
2022-11-06T07:06:30.140Z,5.47
2022-11-06T07:11:32.214Z,4.60
2022-11-06T07:16:34.059Z,4.28
2022-11-06T07:21:35.939Z,3.45
2022-11-06T07:26:37.945Z,4.20
2022-11-06T07:31:42.536Z,3.53
2022-11-06T07:36:44.470Z,3.55
2022-11-06T07:41:46.173Z,4.43
2022-11-06T07:46:47.811Z,3.95
2022-11-06T07:51:49.622Z,3.97
2022-11-06T07:56:51.383Z,4.10
2022-11-06T08:01:53.105Z,3.70
2022-11-06T08:06:54.945Z,2.95
2022-11-06T08:11:56.990Z,3.28
2022-11-06T08:16:58.673Z,2.70
2022-11-06T08:22:00.541Z,3.13
2022-11-06T08:27:03.163Z,3.28
2022-11-06T08:32:04.984Z,2.70
2022-11-06T08:37:06.711Z,2.80
2022-11-06T08:42:08.405Z,2.70
2022-11-06T08:47:09.980Z,2.20
2022-11-06T08:52:11.633Z,2.40
2022-11-06T08:57:13.375Z,2.60
2022-11-06T09:02:15.675Z,2.17
2022-11-06T09:07:17.964Z,2.30
2022-11-06T09:12:19.694Z,2.50
2022-11-06T09:17:23.810Z,2.42
2022-11-06T09:22:25.520Z,2.50
2022-11-06T09:27:27.261Z,2.55
2022-11-06T09:32:28.892Z,3.05
2022-11-06T09:37:30.573Z,3.55
2022-11-06T09:43:02.416Z,3.67
2022-11-06T09:48:10.193Z,3.85
2022-11-06T09:53:27.466Z,1.95
2022-11-06T09:58:37.400Z,2.70
2022-11-06T10:04:06.827Z,2.40
2022-11-06T10:09:08.569Z,3.15
2022-11-06T10:14:22.983Z,3.00
2022-11-06T10:19:39.486Z,2.65
2022-11-06T10:24:55.636Z,3.15
2022-11-06T10:30:08.964Z,2.78
2022-11-06T10:35:20.811Z,2.67
2022-11-06T10:40:26.151Z,3.00
2022-11-06T10:45:29.391Z,2.88
2022-11-06T10:50:46.782Z,3.33
2022-11-06T10:56:00.572Z,2.45
2022-11-06T11:01:06.007Z,2.40
2022-11-06T11:06:07.905Z,2.78
2022-11-06T11:11:15.542Z,2.63
2022-11-06T11:16:18.601Z,2.83
2022-11-06T11:21:20.982Z,2.83
2022-11-06T11:26:28.974Z,2.50
2022-11-06T11:31:33.339Z,3.50
2022-11-06T11:36:58.263Z,2.78
2022-11-06T11:42:29.334Z,2.50
2022-11-06T11:47:31.112Z,2.65
2022-11-06T11:52:32.907Z,2.40
2022-11-06T11:57:34.742Z,1.88
2022-11-06T12:02:42.669Z,1.98
2022-11-06T12:07:49.775Z,1.60
2022-11-06T12:12:53.199Z,1.70
2022-11-06T12:17:59.568Z,1.90
2022-11-06T12:23:04.797Z,1.98
2022-11-06T12:28:14.228Z,1.58
2022-11-06T12:33:59.695Z,1.63
2022-11-06T12:38:55.515Z,1.73
2022-11-06T12:43:58.376Z,1.60
2022-11-06T12:49:26.318Z,2.35
2022-11-06T12:54:47.735Z,2.22
2022-11-06T13:05:16.540Z,2.22
2022-11-06T13:10:21.351Z,2.10
2022-11-06T13:15:26.014Z,1.90
2022-11-06T13:20:40.304Z,2.30
2022-11-06T13:26:12.180Z,1.85
2022-11-06T13:31:18.765Z,1.80
2022-11-06T13:36:22.762Z,1.90
2022-11-06T13:41:31.180Z,2.17
2022-11-06T13:47:10.300Z,3.05
2022-11-06T13:52:27.151Z,2.50
2022-11-06T13:57:39.618Z,2.47
2022-11-06T14:03:09.844Z,2.40
2022-11-06T14:08:38.731Z,2.53
2022-11-06T14:13:41.135Z,2.72
2022-11-06T14:18:43.207Z,2.63
2022-11-06T14:23:44.783Z,3.03
2022-11-06T14:28:46.628Z,2.80
2022-11-06T14:33:49.443Z,2.42
2022-11-06T14:38:52.616Z,2.00
2022-11-06T14:43:56.539Z,2.47
2022-11-06T14:49:10.190Z,2.50
2022-11-06T14:54:22.867Z,2.13
2022-11-06T14:59:35.258Z,1.67
2022-11-06T15:04:44.559Z,1.90
2022-11-06T15:09:47.342Z,1.63
2022-11-06T15:14:48.919Z,1.63
2022-11-06T15:20:00.452Z,1.73
2022-11-06T15:25:17.630Z,1.70
2022-11-06T15:30:20.926Z,1.45
2022-11-06T15:35:26.176Z,1.80
2022-11-06T15:40:30.741Z,1.83
2022-11-06T15:45:32.699Z,2.33
2022-11-06T15:50:37.089Z,2.35
2022-11-06T15:55:45.142Z,2.13
2022-11-06T16:00:46.993Z,1.60
2022-11-06T16:05:49.568Z,2.05
2022-11-06T16:10:52.267Z,2.43
2022-11-06T16:16:00.583Z,3.05
2022-11-06T16:21:08.472Z,2.65
2022-11-06T16:26:14.235Z,2.75
2022-11-06T16:31:23.502Z,2.88
2022-11-06T16:36:27.458Z,3.70
2022-11-06T16:42:02.851Z,2.42
2022-11-06T16:47:04.566Z,3.30
2022-11-06T16:52:39.341Z,2.90
2022-11-06T16:57:59.071Z,2.22
2022-11-06T17:03:20.500Z,2.30
2022-11-06T17:08:28.460Z,2.90
2022-11-06T17:13:35.159Z,2.67
2022-11-06T17:18:38.984Z,2.67
2022-11-06T17:23:41.077Z,2.70
2022-11-06T17:28:42.902Z,2.67
2022-11-06T17:33:45.541Z,3.10
2022-11-06T17:38:48.163Z,3.30
2022-11-06T17:43:50.155Z,3.97
2022-11-06T17:48:51.815Z,3.50
2022-11-06T17:53:54.845Z,3.72
2022-11-06T17:58:56.525Z,3.72
2022-11-06T18:03:58.489Z,4.30
2022-11-06T18:09:01.841Z,3.83
2022-11-06T18:14:03.875Z,4.20
2022-11-06T18:19:07.880Z,4.47
2022-11-06T18:24:09.884Z,5.10
2022-11-06T18:29:13.516Z,5.05
2022-11-06T18:34:20.665Z,5.32
2022-11-06T18:39:26.873Z,5.75
2022-11-06T18:44:30.246Z,5.45
2022-11-06T18:49:31.962Z,5.40
2022-11-06T18:54:34.698Z,5.65
2022-11-06T18:59:36.477Z,6.10
2022-11-06T19:04:38.550Z,6.20
2022-11-06T19:09:40.520Z,6.30
2022-11-06T19:14:42.215Z,6.28
2022-11-06T19:19:44.127Z,5.78
2022-11-06T19:24:46.772Z,5.97
2022-11-06T19:29:48.539Z,5.78
2022-11-06T19:34:50.299Z,5.88
2022-11-06T19:39:53.714Z,5.10
2022-11-06T19:44:58.195Z,5.22
2022-11-06T19:50:04.727Z,4.68
2022-11-06T19:55:26.091Z,4.85
2022-11-06T20:00:29.130Z,4.82
2022-11-06T20:05:31.140Z,5.15
2022-11-06T20:10:35.528Z,4.60
2022-11-06T20:15:39.536Z,5.20
2022-11-06T20:20:41.331Z,4.72
2022-11-06T20:25:44.615Z,5.82
2022-11-06T20:30:47.688Z,4.30
2022-11-06T20:35:49.621Z,5.45
2022-11-06T20:40:56.205Z,4.40
2022-11-06T20:46:03.341Z,4.43
2022-11-06T20:51:11.743Z,4.13
2022-11-06T20:56:16.421Z,3.83
2022-11-06T21:01:20.854Z,4.35
2022-11-06T21:06:24.418Z,4.00
2022-11-06T21:11:27.880Z,3.78
2022-11-06T21:16:36.074Z,3.33
2022-11-06T21:21:37.827Z,3.85
2022-11-06T21:26:40.021Z,3.80
2022-11-06T21:31:48.657Z,3.92
2022-11-06T21:36:51.252Z,3.80
2022-11-06T21:41:52.971Z,3.15
2022-11-06T21:46:54.632Z,3.83
2022-11-06T21:52:16.422Z,3.60
2022-11-06T21:57:18.029Z,3.50
2022-11-06T22:02:19.910Z,3.10
2022-11-06T22:07:21.651Z,3.05
2022-11-06T22:12:23.987Z,2.78
2022-11-06T22:17:25.819Z,2.67
2022-11-06T22:22:27.482Z,2.00
2022-11-06T22:27:29.209Z,2.88
2022-11-06T22:32:30.842Z,2.47
2022-11-06T22:37:32.513Z,2.50
2022-11-06T22:42:34.226Z,2.97
2022-11-06T22:47:36.251Z,2.58
2022-11-06T22:52:37.890Z,3.08
2022-11-06T22:57:39.670Z,2.70
2022-11-06T23:02:41.451Z,3.00
2022-11-06T23:07:43.180Z,2.65
2022-11-06T23:12:44.924Z,2.60
2022-11-06T23:17:46.590Z,2.50
2022-11-06T23:22:48.310Z,3.20
2022-11-06T23:27:50.214Z,2.88
2022-11-06T23:32:52.498Z,4.05
2022-11-06T23:37:54.206Z,3.17
2022-11-06T23:42:57.567Z,3.38
2022-11-06T23:48:02.124Z,2.55
2022-11-06T23:53:06.352Z,2.30
2022-11-06T23:58:08.442Z,2.53
